createdAt,value
2019-02-19T00:00:28.213Z,39.63
2019-02-19T00:02:56.962Z,35.80
2019-02-19T00:05:25.290Z,33.00
2019-02-19T00:07:53.600Z,33.33
2019-02-19T00:10:22.356Z,31.97
2019-02-19T00:12:50.647Z,30.90
2019-02-19T00:15:19.082Z,30.57
2019-02-19T00:17:47.832Z,29.67
2019-02-19T00:20:16.169Z,33.27
2019-02-19T00:22:44.550Z,39.33
2019-02-19T00:25:13.087Z,38.63
2019-02-19T00:27:41.440Z,39.57
2019-02-19T00:30:09.752Z,34.87
2019-02-19T00:32:38.299Z,36.60
2019-02-19T00:35:06.682Z,35.87
2019-02-19T00:37:34.996Z,37.67
2019-02-19T00:40:03.713Z,36.60
2019-02-19T00:42:32.069Z,37.93
2019-02-19T00:45:00.435Z,38.93
2019-02-19T00:47:29.145Z,40.27
2019-02-19T00:49:57.438Z,40.53
2019-02-19T00:52:25.825Z,33.20
2019-02-19T00:54:54.733Z,30.70
2019-02-19T00:57:23.091Z,32.60
2019-02-19T00:59:51.425Z,33.37
2019-02-19T01:02:20.022Z,31.97
2019-02-19T01:04:48.395Z,32.93
2019-02-19T01:07:16.876Z,31.37
2019-02-19T01:09:45.308Z,30.80
2019-02-19T01:12:13.614Z,30.07
2019-02-19T01:14:41.977Z,31.33
2019-02-19T01:17:10.694Z,31.93
2019-02-19T01:19:39.017Z,29.37
2019-02-19T01:22:07.371Z,31.77
2019-02-19T01:24:35.807Z,28.53
2019-02-19T01:27:04.095Z,30.73
2019-02-19T01:29:32.455Z,31.30
2019-02-19T01:32:01.163Z,30.07
2019-02-19T01:34:29.487Z,31.57
2019-02-19T01:36:58.053Z,27.30
2019-02-19T01:39:26.761Z,28.40
2019-02-19T01:41:55.094Z,30.80
2019-02-19T01:44:23.447Z,27.10
2019-02-19T01:46:52.108Z,33.40
2019-02-19T01:49:20.468Z,32.77
2019-02-19T01:51:48.760Z,32.80
2019-02-19T01:54:17.206Z,28.47
2019-02-19T01:56:45.694Z,27.83
2019-02-19T01:59:14.018Z,28.50
2019-02-19T02:01:42.467Z,28.30
2019-02-19T02:04:10.857Z,28.10
2019-02-19T02:06:39.189Z,28.40
2019-02-19T02:09:07.633Z,34.57
2019-02-19T02:11:35.997Z,31.90
2019-02-19T02:14:04.344Z,31.50
2019-02-19T02:16:32.777Z,31.07
2019-02-19T02:19:01.137Z,29.57
2019-02-19T02:21:29.447Z,32.10
2019-02-19T02:23:57.940Z,33.87
2019-02-19T02:26:26.328Z,34.40
2019-02-19T02:28:54.809Z,31.97
2019-02-19T02:31:23.460Z,28.73
2019-02-19T02:33:51.994Z,28.10
2019-02-19T02:36:20.327Z,29.33
2019-02-19T02:38:48.744Z,28.90
2019-02-19T02:41:17.107Z,26.73
2019-02-19T02:43:45.485Z,27.00
2019-02-19T02:46:13.896Z,30.83
2019-02-19T02:48:42.266Z,30.03
2019-02-19T02:51:10.639Z,30.73
2019-02-19T02:53:39.054Z,33.70
2019-02-19T02:56:07.408Z,31.70
2019-02-19T02:58:35.717Z,32.83
2019-02-19T03:01:04.456Z,40.30
2019-02-19T03:03:32.831Z,36.07
2019-02-19T03:06:10.575Z,35.70
2019-02-19T03:08:38.921Z,43.87
2019-02-19T03:11:07.443Z,37.03
2019-02-19T03:13:36.032Z,38.70
2019-02-19T03:16:04.410Z,47.93
2019-02-19T03:18:32.688Z,39.27
2019-02-19T03:21:01.616Z,37.70
2019-02-19T03:23:29.943Z,43.80
2019-02-19T03:25:58.366Z,46.27
2019-02-19T03:28:27.020Z,38.77
2019-02-19T03:30:55.345Z,40.23
2019-02-19T03:33:23.689Z,37.23
2019-02-19T03:35:52.182Z,37.93
2019-02-19T03:38:20.565Z,44.83
2019-02-19T03:40:48.943Z,40.97
2019-02-19T03:43:17.415Z,23.57
2019-02-19T03:45:45.758Z,41.90
2019-02-19T03:48:14.084Z,37.33
2019-02-19T03:50:42.760Z,27.37
2019-02-19T03:53:11.049Z,35.60
2019-02-19T03:55:39.403Z,39.50
2019-02-19T03:58:07.852Z,34.87
2019-02-19T04:00:36.199Z,37.83
2019-02-19T04:03:04.648Z,40.47
2019-02-19T04:05:33.505Z,39.23
2019-02-19T04:08:01.838Z,38.27
2019-02-19T04:10:30.187Z,27.30
2019-02-19T04:12:58.772Z,35.47
2019-02-19T04:15:27.115Z,39.90
2019-02-19T04:17:55.513Z,43.37
2019-02-19T04:20:23.929Z,38.27
2019-02-19T04:22:52.261Z,36.40
2019-02-19T04:25:20.658Z,37.40
2019-02-19T04:27:49.106Z,26.73
2019-02-19T04:30:17.471Z,28.97
2019-02-19T04:32:45.815Z,26.17
2019-02-19T04:35:14.200Z,35.73
2019-02-19T04:37:42.514Z,36.60
2019-02-19T04:40:10.929Z,39.80
2019-02-19T04:42:39.826Z,36.70
2019-02-19T04:45:08.175Z,33.63
2019-02-19T04:47:36.480Z,40.10
2019-02-19T04:50:05.974Z,38.00
2019-02-19T04:52:34.566Z,41.27
2019-02-19T04:55:02.910Z,37.73
2019-02-19T04:57:31.572Z,39.63
2019-02-19T04:59:59.899Z,28.47
2019-02-19T05:02:28.226Z,37.70
2019-02-19T05:04:56.768Z,31.67
2019-02-19T05:07:25.104Z,39.53
2019-02-19T05:09:53.461Z,29.40
2019-02-19T05:12:22.168Z,39.73
2019-02-19T05:14:50.502Z,37.37
2019-02-19T05:17:18.877Z,34.93
2019-02-19T05:19:47.345Z,33.63
2019-02-19T05:22:15.659Z,36.70
2019-02-19T05:24:44.057Z,34.57
2019-02-19T05:27:12.567Z,34.40
2019-02-19T05:29:40.876Z,36.60
2019-02-19T05:32:09.193Z,34.63
2019-02-19T05:34:37.697Z,34.63
2019-02-19T05:37:06.457Z,35.53
2019-02-19T05:39:34.755Z,35.97
2019-02-19T05:42:03.749Z,38.37
2019-02-19T05:44:32.127Z,34.20
2019-02-19T05:47:00.461Z,38.33
2019-02-19T05:49:29.187Z,34.40
2019-02-19T05:51:57.523Z,38.23
2019-02-19T05:54:25.881Z,39.17
2019-02-19T05:56:54.628Z,44.33
2019-02-19T05:59:22.991Z,40.97
2019-02-19T06:01:51.356Z,38.40
2019-02-19T06:04:19.756Z,36.37
2019-02-19T06:06:48.087Z,40.53
2019-02-19T06:09:16.422Z,41.20
2019-02-19T06:11:45.361Z,35.93
2019-02-19T06:14:13.887Z,39.27
2019-02-19T06:16:42.259Z,39.00
2019-02-19T06:19:10.951Z,32.13
2019-02-19T06:21:39.292Z,35.17
2019-02-19T06:24:07.674Z,35.87
2019-02-19T06:26:36.230Z,42.07
2019-02-19T06:29:04.619Z,32.07
2019-02-19T06:31:33.143Z,41.63
2019-02-19T06:34:02.138Z,37.83
2019-02-19T06:36:30.523Z,41.97
2019-02-19T06:38:59.202Z,39.70
2019-02-19T06:41:27.644Z,39.50
2019-02-19T06:43:56.035Z,37.67
2019-02-19T06:46:24.351Z,37.10
2019-02-19T06:48:52.776Z,41.47
2019-02-19T06:51:21.402Z,36.37
2019-02-19T06:53:49.830Z,36.10
2019-02-19T06:56:18.209Z,35.33
2019-02-19T06:58:46.601Z,38.30
2019-02-19T07:01:15.129Z,36.70
2019-02-19T07:03:50.593Z,40.73
2019-02-19T07:06:18.958Z,38.13
2019-02-19T07:08:47.283Z,38.60
2019-02-19T07:11:15.965Z,39.73
2019-02-19T07:13:44.597Z,36.87
2019-02-19T07:16:12.899Z,38.00
2019-02-19T07:18:41.848Z,35.93
2019-02-19T07:21:10.146Z,37.73
2019-02-19T07:23:38.583Z,39.40
2019-02-19T07:26:07.436Z,39.37
2019-02-19T07:28:35.746Z,41.60
2019-02-19T07:31:04.044Z,38.90
2019-02-19T07:33:32.483Z,36.03
2019-02-19T07:36:00.835Z,40.83
2019-02-19T07:38:29.156Z,35.97
2019-02-19T07:40:58.316Z,39.73
2019-02-19T07:43:26.645Z,36.63
2019-02-19T07:45:54.942Z,32.27
2019-02-19T07:48:23.360Z,36.33
2019-02-19T07:50:51.846Z,37.07
2019-02-19T07:53:20.156Z,35.53
2019-02-19T07:55:48.576Z,35.93
2019-02-19T07:58:16.923Z,33.00
2019-02-19T08:00:45.242Z,35.63
2019-02-19T08:03:14.033Z,34.23
2019-02-19T08:05:42.379Z,33.63
2019-02-19T08:08:10.699Z,35.00
2019-02-19T08:10:39.265Z,33.87
2019-02-19T08:13:07.555Z,33.27
2019-02-19T08:15:35.887Z,33.20
2019-02-19T08:18:04.605Z,32.87
2019-02-19T08:20:33.101Z,32.83
2019-02-19T08:23:01.418Z,32.07
2019-02-19T08:25:30.123Z,32.40
2019-02-19T08:27:58.450Z,30.13
2019-02-19T08:30:26.765Z,29.33
2019-02-19T08:32:55.501Z,30.00
2019-02-19T08:35:23.802Z,30.40
2019-02-19T08:37:52.393Z,28.23
2019-02-19T08:40:20.927Z,25.20
2019-02-19T08:42:49.245Z,25.43
2019-02-19T08:45:17.795Z,25.63
2019-02-19T08:47:46.356Z,24.90
2019-02-19T08:50:14.667Z,24.00
2019-02-19T08:52:43.083Z,23.73
2019-02-19T08:55:11.537Z,22.87
2019-02-19T08:57:39.879Z,20.13
2019-02-19T09:00:09.089Z,21.37
2019-02-19T09:02:37.873Z,21.53
2019-02-19T09:05:06.385Z,21.53
2019-02-19T09:07:34.732Z,19.27
2019-02-19T09:10:03.316Z,18.87
2019-02-19T09:12:31.687Z,18.13
2019-02-19T09:14:59.983Z,19.27
2019-02-19T09:17:28.372Z,19.90
2019-02-19T09:19:56.717Z,19.43
2019-02-19T09:22:25.024Z,19.53
2019-02-19T09:24:53.588Z,20.57
2019-02-19T09:27:21.945Z,18.00
2019-02-19T09:29:50.443Z,19.90
2019-02-19T09:32:19.031Z,19.47
2019-02-19T09:34:47.387Z,18.90
2019-02-19T09:37:15.705Z,20.80
2019-02-19T09:39:44.186Z,20.73
2019-02-19T09:42:12.664Z,19.57
2019-02-19T09:44:40.995Z,20.73
2019-02-19T09:47:09.745Z,20.17
2019-02-19T09:49:38.073Z,19.70
2019-02-19T09:52:06.426Z,19.30
2019-02-19T09:54:35.028Z,17.57
2019-02-19T09:57:04.163Z,20.87
2019-02-19T09:59:32.487Z,19.13
2019-02-19T10:02:01.091Z,17.17
2019-02-19T10:04:29.412Z,19.00
2019-02-19T10:06:58.552Z,18.57
2019-02-19T10:09:26.976Z,17.03
2019-02-19T10:11:55.280Z,17.20
2019-02-19T10:14:23.637Z,16.83
2019-02-19T10:16:52.313Z,17.60
2019-02-19T10:19:20.600Z,16.27
2019-02-19T10:21:48.985Z,17.40
2019-02-19T10:24:17.411Z,16.60
2019-02-19T10:26:45.716Z,16.37
2019-02-19T10:29:14.074Z,15.57
2019-02-19T10:31:42.675Z,16.03
2019-02-19T10:34:11.080Z,15.10
2019-02-19T10:36:39.411Z,16.47
2019-02-19T10:39:08.593Z,14.67
2019-02-19T10:41:36.942Z,14.70
2019-02-19T10:44:05.285Z,16.13
2019-02-19T10:46:34.164Z,15.80
2019-02-19T10:49:02.479Z,17.63
2019-02-19T10:51:30.794Z,16.63
2019-02-19T10:53:59.260Z,17.83
2019-02-19T10:56:27.593Z,15.53
2019-02-19T10:58:55.967Z,16.57
2019-02-19T11:01:24.393Z,16.20
2019-02-19T11:03:52.713Z,15.60
2019-02-19T11:06:21.222Z,14.77
2019-02-19T11:08:49.618Z,15.40
2019-02-19T11:11:17.944Z,15.27
2019-02-19T11:13:46.315Z,14.93
2019-02-19T11:16:14.766Z,16.00
2019-02-19T11:18:43.080Z,14.93
2019-02-19T11:21:19.320Z,14.17
2019-02-19T11:23:39.887Z,13.27
2019-02-19T11:26:08.523Z,13.53
2019-02-19T11:28:36.841Z,13.50
2019-02-19T11:31:05.330Z,12.60
2019-02-19T11:33:33.645Z,13.70
2019-02-19T11:36:01.976Z,13.60
2019-02-19T11:38:30.716Z,14.23
2019-02-19T11:40:59.166Z,14.43
2019-02-19T11:43:27.538Z,13.37
2019-02-19T11:45:56.338Z,14.10
2019-02-19T11:48:24.702Z,13.03
2019-02-19T11:50:53.026Z,13.53
2019-02-19T11:53:22.306Z,12.20
2019-02-19T11:55:50.324Z,12.20
2019-02-19T11:58:18.683Z,11.87
2019-02-19T12:00:47.120Z,11.17
2019-02-19T12:03:15.722Z,11.77
2019-02-19T12:05:44.064Z,11.23
2019-02-19T12:08:12.465Z,12.93
2019-02-19T12:10:40.798Z,11.67
2019-02-19T12:13:09.170Z,11.87
2019-02-19T12:15:37.603Z,11.37
2019-02-19T12:18:05.963Z,9.93
2019-02-19T12:20:34.284Z,10.00
2019-02-19T12:23:03.005Z,9.77
2019-02-19T12:25:31.434Z,10.73
2019-02-19T12:27:59.713Z,8.70
2019-02-19T12:30:28.136Z,9.83
2019-02-19T12:32:56.416Z,9.83
2019-02-19T12:35:24.786Z,9.77
2019-02-19T12:37:53.250Z,9.07
2019-02-19T12:40:21.604Z,8.60
2019-02-19T12:42:49.952Z,9.50
2019-02-19T12:45:18.393Z,8.73
2019-02-19T12:47:46.787Z,9.13
2019-02-19T12:50:15.173Z,9.80
2019-02-19T12:52:43.886Z,8.77
2019-02-19T12:55:12.195Z,9.67
2019-02-19T12:57:40.563Z,8.70
2019-02-19T13:00:12.092Z,8.27
2019-02-19T13:02:40.476Z,7.63
2019-02-19T13:05:10.242Z,7.67
2019-02-19T13:07:38.944Z,7.40
2019-02-19T13:10:07.967Z,7.27
2019-02-19T13:12:36.396Z,7.00
2019-02-19T13:15:05.735Z,7.33
2019-02-19T13:17:34.086Z,5.30
2019-02-19T13:20:02.399Z,6.80
2019-02-19T13:22:31.182Z,6.47
2019-02-19T13:24:59.863Z,5.37
2019-02-19T13:27:28.236Z,5.03
2019-02-19T13:29:56.768Z,5.67
2019-02-19T13:32:25.128Z,4.87
2019-02-19T13:34:53.440Z,5.20
2019-02-19T13:37:21.888Z,4.90
2019-02-19T13:39:50.181Z,5.07
2019-02-19T13:42:18.554Z,5.13
2019-02-19T13:44:47.128Z,4.87
2019-02-19T13:47:15.437Z,4.63
2019-02-19T13:49:43.951Z,4.43
2019-02-19T13:52:22.723Z,6.10
2019-02-19T13:54:53.391Z,4.93
2019-02-19T13:57:21.981Z,4.57
2019-02-19T13:59:50.386Z,4.40
2019-02-19T14:02:18.686Z,4.40
2019-02-19T14:04:47.489Z,4.90
2019-02-19T14:07:15.846Z,4.23
2019-02-19T14:09:44.279Z,5.13
2019-02-19T14:12:12.950Z,4.37
2019-02-19T14:14:47.009Z,4.27
2019-02-19T14:17:17.931Z,4.90
2019-02-19T14:19:52.711Z,4.23
2019-02-19T14:22:38.835Z,4.47
2019-02-19T14:25:28.159Z,4.00
2019-02-19T14:30:09.772Z,3.93
2019-02-19T14:32:43.364Z,4.03
2019-02-19T14:35:16.035Z,4.07
2019-02-19T14:37:52.715Z,3.97
2019-02-19T14:40:30.435Z,4.03
2019-02-19T14:43:04.244Z,3.30
2019-02-19T14:45:41.950Z,4.30
2019-02-19T14:50:19.130Z,3.20
2019-02-19T14:52:58.866Z,2.77
2019-02-19T14:55:32.555Z,3.10
2019-02-19T15:00:08.735Z,2.93
2019-02-19T15:02:42.136Z,2.90
2019-02-19T15:05:15.948Z,3.20
2019-02-19T15:07:49.401Z,3.17
2019-02-19T15:10:53.078Z,3.30
2019-02-19T15:13:26.862Z,2.70
2019-02-19T15:18:04.157Z,3.07
2019-02-19T15:20:37.738Z,2.97
2019-02-19T15:23:15.572Z,3.07
2019-02-19T15:25:49.239Z,3.47
2019-02-19T15:30:26.881Z,2.97
2019-02-19T15:33:01.062Z,3.87
2019-02-19T15:35:33.682Z,3.30
2019-02-19T15:38:06.240Z,3.83
2019-02-19T15:40:45.747Z,3.73
2019-02-19T15:43:19.798Z,3.30
2019-02-19T15:45:53.703Z,3.40
2019-02-19T15:50:34.011Z,3.30
2019-02-19T15:53:11.781Z,3.53
2019-02-19T15:55:45.118Z,4.37
2019-02-19T16:00:20.511Z,5.63
2019-02-19T16:02:55.133Z,3.70
2019-02-19T16:05:48.692Z,3.23
2019-02-19T16:08:36.237Z,2.80
2019-02-19T16:11:12.895Z,3.03
2019-02-19T16:14:19.671Z,3.63
2019-02-19T16:16:54.129Z,3.67
2019-02-19T16:19:27.605Z,3.13
2019-02-19T16:22:01.178Z,3.10
2019-02-19T16:24:51.805Z,2.90
2019-02-19T16:27:24.531Z,3.00
2019-02-19T16:29:57.941Z,2.97
2019-02-19T16:32:31.687Z,2.50
2019-02-19T16:35:36.321Z,2.80
2019-02-19T16:38:09.863Z,3.20
2019-02-19T16:40:47.415Z,3.27
2019-02-19T16:43:21.324Z,3.80
2019-02-19T16:45:58.828Z,2.83
2019-02-19T16:50:35.187Z,2.40
2019-02-19T16:53:09.739Z,2.77
2019-02-19T16:55:51.769Z,4.10
2019-02-19T16:58:25.349Z,2.63
2019-02-19T17:01:01.107Z,2.70
2019-02-19T17:03:38.578Z,2.67
2019-02-19T17:06:11.832Z,2.83
2019-02-19T17:08:45.434Z,2.80
2019-02-19T17:11:19.183Z,3.17
2019-02-19T17:13:58.311Z,2.27
2019-02-19T17:16:26.388Z,2.90
2019-02-19T17:19:01.962Z,2.90
2019-02-19T17:21:36.617Z,2.80
2019-02-19T17:24:12.099Z,2.40
2019-02-19T17:26:45.913Z,2.40
2019-02-19T17:29:22.492Z,1.93
2019-02-19T17:31:56.226Z,2.17
2019-02-19T17:34:28.807Z,2.10
2019-02-19T17:37:02.869Z,1.97
2019-02-19T17:39:35.418Z,1.93
2019-02-19T17:42:10.989Z,2.07
2019-02-19T17:44:43.617Z,1.97
2019-02-19T17:47:34.203Z,1.80
2019-02-19T17:50:09.791Z,1.77
2019-02-19T17:52:42.745Z,1.90
2019-02-19T17:56:23.572Z,2.20
2019-02-19T17:59:55.908Z,1.97
2019-02-19T18:04:35.258Z,1.87
2019-02-19T18:07:13.056Z,1.63
2019-02-19T18:10:20.782Z,2.27
2019-02-19T18:12:55.657Z,2.00
2019-02-19T18:15:29.101Z,1.97
2019-02-19T18:18:34.754Z,1.70
2019-02-19T18:21:03.182Z,2.07
2019-02-19T18:23:31.722Z,1.97
2019-02-19T18:26:00.468Z,1.90
2019-02-19T18:28:28.796Z,2.17
2019-02-19T18:30:57.244Z,1.83
2019-02-19T18:33:25.759Z,2.80
2019-02-19T18:35:54.098Z,2.77
2019-02-19T18:38:22.404Z,2.00
2019-02-19T18:40:51.009Z,2.03
2019-02-19T18:43:19.335Z,1.80
2019-02-19T18:45:47.640Z,1.50
2019-02-19T18:48:16.378Z,2.23
2019-02-19T18:50:44.743Z,1.60
2019-02-19T18:53:13.078Z,1.60
2019-02-19T18:55:41.685Z,2.00
2019-02-19T18:58:09.992Z,1.93
2019-02-19T19:00:38.383Z,1.70
2019-02-19T19:03:06.869Z,1.90
2019-02-19T19:05:35.224Z,1.57
2019-02-19T19:08:03.624Z,1.40
2019-02-19T19:10:32.186Z,1.93
2019-02-19T19:13:00.552Z,1.77
2019-02-19T19:15:28.885Z,1.70
2019-02-19T19:17:57.935Z,1.93
2019-02-19T19:20:26.264Z,2.17
2019-02-19T19:22:54.614Z,1.90
2019-02-19T19:25:23.204Z,1.93
2019-02-19T19:27:51.549Z,2.37
2019-02-19T19:30:19.900Z,2.07
2019-02-19T19:32:48.383Z,1.60
2019-02-19T19:35:16.700Z,2.00
2019-02-19T19:37:45.110Z,2.77
2019-02-19T19:40:13.686Z,2.00
2019-02-19T19:42:42.057Z,1.80
2019-02-19T19:45:10.442Z,1.70
2019-02-19T19:47:39.018Z,1.80
2019-02-19T19:50:07.956Z,1.97
2019-02-19T19:52:36.297Z,2.07
2019-02-19T19:55:05.304Z,1.90
2019-02-19T19:57:33.648Z,1.77
2019-02-19T20:00:01.958Z,1.57
2019-02-19T20:02:30.518Z,1.70
2019-02-19T20:04:58.906Z,2.07
2019-02-19T20:07:27.230Z,2.03
2019-02-19T20:09:55.911Z,1.80
2019-02-19T20:12:24.249Z,1.70
2019-02-19T20:14:52.570Z,2.70
2019-02-19T20:17:21.327Z,1.67
2019-02-19T20:19:49.651Z,1.90
2019-02-19T20:22:18.194Z,1.83
2019-02-19T20:24:46.642Z,1.90
2019-02-19T20:27:14.972Z,2.57
2019-02-19T20:29:43.314Z,2.10
2019-02-19T20:32:11.894Z,1.83
2019-02-19T20:34:40.198Z,2.07
2019-02-19T20:37:08.746Z,1.87
2019-02-19T20:39:37.651Z,2.03
2019-02-19T20:42:05.963Z,1.80
2019-02-19T20:44:34.852Z,2.10
2019-02-19T20:47:03.716Z,2.10
2019-02-19T20:49:32.217Z,1.70
2019-02-19T20:52:00.874Z,1.83
2019-02-19T20:54:29.444Z,1.73
2019-02-19T20:56:58.192Z,2.33
2019-02-19T20:59:26.810Z,3.00
2019-02-19T21:01:55.306Z,1.97
2019-02-19T21:04:23.748Z,1.50
2019-02-19T21:06:52.119Z,1.77
2019-02-19T21:09:20.923Z,1.70
2019-02-19T21:11:49.250Z,1.77
2019-02-19T21:14:17.720Z,1.60
2019-02-19T21:16:46.208Z,2.00
2019-02-19T21:19:14.585Z,1.37
2019-02-19T21:21:44.987Z,1.53
2019-02-19T21:24:11.829Z,1.70
2019-02-19T21:26:40.211Z,2.10
2019-02-19T21:29:08.606Z,1.77
2019-02-19T21:31:37.102Z,2.30
2019-02-19T21:34:05.482Z,1.93
2019-02-19T21:36:33.947Z,2.20
2019-02-19T21:39:02.506Z,1.53
2019-02-19T21:41:30.829Z,2.20
2019-02-19T21:43:59.270Z,2.00
2019-02-19T21:46:27.847Z,1.87
2019-02-19T21:48:56.273Z,1.90
2019-02-19T21:51:24.757Z,2.57
2019-02-19T21:53:53.411Z,2.03
2019-02-19T21:56:21.813Z,1.97
2019-02-19T21:58:50.167Z,1.90
2019-02-19T22:01:18.605Z,1.47
2019-02-19T22:03:47.042Z,1.73
2019-02-19T22:06:15.375Z,2.00
2019-02-19T22:08:43.840Z,2.20
2019-02-19T22:11:12.186Z,2.10
2019-02-19T22:13:40.532Z,1.70
2019-02-19T22:16:09.264Z,1.93
2019-02-19T22:18:37.637Z,2.10
2019-02-19T22:21:40.747Z,1.60
2019-02-19T22:24:09.262Z,2.27
2019-02-19T22:26:37.576Z,1.90
2019-02-19T22:29:06.000Z,2.63
2019-02-19T22:31:34.371Z,2.63
2019-02-19T22:34:02.707Z,1.97
2019-02-19T22:36:31.144Z,1.70
2019-02-19T22:38:59.555Z,2.20
2019-02-19T22:41:27.881Z,2.03
2019-02-19T22:43:56.598Z,2.30
2019-02-19T22:46:24.872Z,2.30
2019-02-19T22:48:53.162Z,2.20
2019-02-19T22:51:22.041Z,2.37
2019-02-19T22:54:00.740Z,2.13
2019-02-19T22:56:34.937Z,1.80
2019-02-19T22:59:03.293Z,2.00
2019-02-19T23:01:35.358Z,2.33
2019-02-19T23:04:03.672Z,2.20
2019-02-19T23:06:31.993Z,2.47
2019-02-19T23:09:00.956Z,1.97
2019-02-19T23:11:29.282Z,2.87
2019-02-19T23:13:57.710Z,2.10
2019-02-19T23:16:26.554Z,1.87
2019-02-19T23:18:54.892Z,2.03
2019-02-19T23:21:23.204Z,2.60
2019-02-19T23:23:51.994Z,1.87
2019-02-19T23:26:20.344Z,1.90
2019-02-19T23:28:48.735Z,2.77
2019-02-19T23:31:17.262Z,1.80
2019-02-19T23:33:45.815Z,2.33
2019-02-19T23:36:18.802Z,2.13
2019-02-19T23:38:47.180Z,1.87
2019-02-19T23:41:15.578Z,2.23
2019-02-19T23:43:44.245Z,1.53
2019-02-19T23:46:12.619Z,2.17
2019-02-19T23:48:40.972Z,2.47
2019-02-19T23:51:09.489Z,2.10
2019-02-19T23:53:37.764Z,1.63
2019-02-19T23:56:06.087Z,1.67
2019-02-19T23:58:34.826Z,2.23
